createdAt,value
2024-01-15T00:00:16.501Z,4.36
2024-01-15T00:01:16.571Z,4.34
2024-01-15T00:02:16.458Z,4.32
2024-01-15T00:03:16.528Z,4.29
2024-01-15T00:04:16.534Z,4.27
2024-01-15T00:05:16.413Z,4.25
2024-01-15T00:06:16.552Z,4.22
2024-01-15T00:07:16.515Z,4.18
2024-01-15T00:08:16.394Z,4.14
2024-01-15T00:09:16.403Z,4.12
2024-01-15T00:10:15.848Z,4.07
2024-01-15T00:11:16.419Z,4.04
2024-01-15T00:12:16.392Z,4.00
2024-01-15T00:13:16.362Z,3.97
2024-01-15T00:14:16.331Z,3.94
2024-01-15T00:15:16.387Z,3.92
2024-01-15T00:16:16.316Z,3.89
2024-01-15T00:17:16.299Z,3.85
2024-01-15T00:18:16.361Z,3.84
2024-01-15T00:19:16.362Z,3.83
2024-01-15T00:20:16.272Z,3.83
2024-01-15T00:21:16.293Z,3.83
2024-01-15T00:22:16.258Z,3.84
2024-01-15T00:23:16.236Z,3.82
2024-01-15T00:24:16.262Z,3.80
2024-01-15T00:25:16.237Z,3.79
2024-01-15T00:26:15.580Z,3.77
2024-01-15T00:27:16.216Z,3.75
2024-01-15T00:28:16.172Z,3.73
2024-01-15T00:29:16.173Z,3.70
2024-01-15T00:30:16.308Z,3.67
2024-01-15T00:31:16.236Z,3.65
2024-01-15T00:32:16.136Z,3.62
2024-01-15T00:33:16.391Z,3.60
2024-01-15T00:34:16.263Z,3.58
2024-01-15T00:35:16.121Z,3.56
2024-01-15T00:36:15.596Z,3.55
2024-01-15T00:37:15.447Z,3.54
2024-01-15T00:38:16.065Z,3.53
2024-01-15T00:39:15.455Z,3.52
2024-01-15T00:40:15.406Z,3.51
2024-01-15T00:41:15.510Z,3.51
2024-01-15T00:42:16.059Z,3.51
2024-01-15T00:43:16.038Z,3.51
2024-01-15T00:44:15.374Z,3.50
2024-01-15T00:45:16.019Z,3.49
2024-01-15T00:46:15.989Z,3.49
2024-01-15T00:47:15.388Z,3.48
2024-01-15T00:48:16.108Z,3.47
2024-01-15T00:49:16.015Z,3.45
2024-01-15T00:50:15.960Z,3.46
2024-01-15T00:51:15.973Z,3.45
2024-01-15T00:52:15.947Z,3.43
2024-01-15T00:53:15.933Z,3.43
2024-01-15T00:54:15.962Z,3.41
2024-01-15T00:55:15.912Z,3.40
2024-01-15T00:56:15.289Z,3.40
2024-01-15T00:57:15.893Z,3.38
2024-01-15T00:58:15.266Z,3.38
2024-01-15T00:59:15.920Z,3.36
2024-01-15T01:00:15.328Z,3.37
2024-01-15T01:01:16.360Z,3.36
2024-01-15T01:02:15.855Z,3.36
2024-01-15T01:03:15.896Z,3.36
2024-01-15T01:04:15.941Z,3.36
2024-01-15T01:05:15.926Z,3.37
2024-01-15T01:06:15.210Z,3.36
2024-01-15T01:07:15.141Z,3.34
2024-01-15T01:08:15.304Z,3.34
2024-01-15T01:09:15.271Z,3.33
2024-01-15T01:10:15.771Z,3.33
2024-01-15T01:11:15.119Z,3.32
2024-01-15T01:12:15.794Z,3.32
2024-01-15T01:13:15.779Z,3.30
2024-01-15T01:14:15.717Z,3.30
2024-01-15T01:15:15.754Z,3.29
2024-01-15T01:16:15.018Z,3.29
2024-01-15T01:17:14.999Z,3.28
2024-01-15T01:18:15.199Z,3.28
2024-01-15T01:19:15.225Z,3.28
2024-01-15T01:20:17.611Z,3.26
2024-01-15T01:21:15.028Z,3.26
2024-01-15T01:22:15.044Z,3.25
2024-01-15T01:23:15.025Z,3.23
2024-01-15T01:24:15.014Z,3.23
2024-01-15T01:25:15.962Z,3.22
2024-01-15T01:26:15.583Z,3.22
2024-01-15T01:27:15.604Z,3.21
2024-01-15T01:28:15.028Z,3.19
2024-01-15T01:29:14.912Z,3.19
2024-01-15T01:30:15.693Z,3.18
2024-01-15T01:31:15.634Z,3.17
2024-01-15T01:32:14.859Z,3.17
2024-01-15T01:33:14.980Z,3.17
2024-01-15T01:34:15.606Z,3.16
2024-01-15T01:35:15.479Z,3.16
2024-01-15T01:36:14.854Z,3.17
2024-01-15T01:37:14.894Z,3.17
2024-01-15T01:38:15.450Z,3.18
2024-01-15T01:39:16.771Z,3.19
2024-01-15T01:40:14.901Z,3.20
2024-01-15T01:41:14.795Z,3.21
2024-01-15T01:42:14.828Z,3.23
2024-01-15T01:43:14.792Z,3.23
2024-01-15T01:44:14.841Z,3.24
2024-01-15T01:45:15.470Z,3.23
2024-01-15T01:46:14.829Z,3.23
2024-01-15T01:47:14.824Z,3.23
2024-01-15T01:48:15.018Z,3.21
2024-01-15T01:49:14.780Z,3.19
2024-01-15T01:50:15.340Z,3.18
2024-01-15T01:51:15.345Z,3.16
2024-01-15T01:52:14.766Z,3.15
2024-01-15T01:53:14.773Z,3.14
2024-01-15T01:54:15.327Z,3.13
2024-01-15T01:55:15.275Z,3.12
2024-01-15T01:56:14.655Z,3.10
2024-01-15T01:57:14.714Z,3.11
2024-01-15T01:58:15.246Z,3.10
2024-01-15T01:59:14.661Z,3.09
2024-01-15T02:00:14.663Z,3.09
2024-01-15T02:01:14.728Z,3.09
2024-01-15T02:02:15.221Z,3.09
2024-01-15T02:03:14.743Z,3.09
2024-01-15T02:04:17.084Z,3.09
2024-01-15T02:05:14.787Z,3.08
2024-01-15T02:06:15.315Z,3.08
2024-01-15T02:07:15.257Z,3.08
2024-01-15T02:08:14.535Z,3.08
2024-01-15T02:09:14.586Z,3.06
2024-01-15T02:10:15.129Z,3.06
2024-01-15T02:11:14.537Z,3.06
2024-01-15T02:12:15.102Z,3.06
2024-01-15T02:13:14.598Z,3.05
2024-01-15T02:14:14.452Z,3.05
2024-01-15T02:15:15.121Z,3.05
2024-01-15T02:16:14.439Z,3.04
2024-01-15T02:17:14.422Z,3.05
2024-01-15T02:18:15.157Z,3.04
2024-01-15T02:19:14.486Z,3.04
2024-01-15T02:20:14.985Z,3.03
2024-01-15T02:21:15.079Z,3.03
2024-01-15T02:22:14.379Z,3.02
2024-01-15T02:23:14.976Z,3.03
2024-01-15T02:24:14.995Z,3.03
2024-01-15T02:25:14.947Z,3.04
2024-01-15T02:26:14.935Z,3.05
2024-01-15T02:27:14.988Z,3.08
2024-01-15T02:28:14.327Z,3.10
2024-01-15T02:29:14.346Z,3.13
2024-01-15T02:30:14.387Z,3.15
2024-01-15T02:31:14.238Z,3.17
2024-01-15T02:32:14.875Z,3.20
2024-01-15T02:33:14.789Z,3.21
2024-01-15T02:34:14.301Z,3.22
2024-01-15T02:35:14.830Z,3.23
2024-01-15T02:36:14.886Z,3.24
2024-01-15T02:37:14.239Z,3.26
2024-01-15T02:38:14.351Z,3.26
2024-01-15T02:39:14.298Z,3.27
2024-01-15T02:40:14.790Z,3.27
2024-01-15T02:41:14.121Z,3.28
2024-01-15T02:42:14.253Z,3.28
2024-01-15T02:43:14.199Z,3.28
2024-01-15T02:44:14.233Z,3.29
2024-01-15T02:45:14.101Z,3.31
2024-01-15T02:46:14.116Z,3.31
2024-01-15T02:47:14.164Z,3.33
2024-01-15T02:48:14.294Z,3.36
2024-01-15T02:49:14.782Z,3.38
2024-01-15T02:50:14.728Z,3.41
2024-01-15T02:51:14.723Z,3.44
2024-01-15T02:52:14.163Z,3.48
2024-01-15T02:53:14.667Z,3.50
2024-01-15T02:54:14.165Z,3.53
2024-01-15T02:55:14.018Z,3.56
2024-01-15T02:56:14.087Z,3.58
2024-01-15T02:57:14.115Z,3.60
2024-01-15T02:58:13.978Z,3.64
2024-01-15T02:59:14.584Z,3.67
2024-01-15T03:00:14.635Z,3.69
2024-01-15T03:01:14.590Z,3.73
2024-01-15T03:02:14.544Z,3.75
2024-01-15T03:03:14.044Z,3.78
2024-01-15T03:04:14.712Z,3.79
2024-01-15T03:05:14.624Z,3.80
2024-01-15T03:06:14.520Z,3.82
2024-01-15T03:07:14.528Z,3.82
2024-01-15T03:08:13.912Z,3.82
2024-01-15T03:09:13.909Z,3.83
2024-01-15T03:10:14.467Z,3.84
2024-01-15T03:11:14.448Z,3.85
2024-01-15T03:12:13.904Z,3.86
2024-01-15T03:13:14.444Z,3.87
2024-01-15T03:14:14.454Z,3.91
2024-01-15T03:15:13.865Z,3.90
2024-01-15T03:16:13.945Z,3.92
2024-01-15T03:17:13.849Z,3.94
2024-01-15T03:18:13.940Z,3.95
2024-01-15T03:19:14.008Z,3.96
2024-01-15T03:20:14.400Z,3.96
2024-01-15T03:21:14.381Z,3.97
2024-01-15T03:22:14.352Z,3.97
2024-01-15T03:23:14.118Z,3.96
2024-01-15T03:24:14.360Z,3.95
2024-01-15T03:25:14.302Z,3.95
2024-01-15T03:26:14.323Z,3.94
2024-01-15T03:27:13.752Z,3.93
2024-01-15T03:28:13.712Z,3.90
2024-01-15T03:29:13.764Z,3.88
2024-01-15T03:30:14.307Z,3.87
2024-01-15T03:31:14.325Z,3.86
2024-01-15T03:32:14.263Z,3.85
2024-01-15T03:33:14.319Z,3.85
2024-01-15T03:34:14.272Z,3.84
2024-01-15T03:35:13.683Z,3.84
2024-01-15T03:36:14.218Z,3.83
2024-01-15T03:37:13.571Z,3.84
2024-01-15T03:38:13.674Z,3.82
2024-01-15T03:39:14.301Z,3.81
2024-01-15T03:40:13.682Z,3.81
2024-01-15T03:41:13.540Z,3.81
2024-01-15T03:42:14.181Z,3.82
2024-01-15T03:43:15.465Z,3.83
2024-01-15T03:44:14.103Z,3.83
2024-01-15T03:45:14.178Z,3.85
2024-01-15T03:46:14.110Z,3.84
2024-01-15T03:47:13.441Z,3.84
2024-01-15T03:48:14.190Z,3.85
2024-01-15T03:49:13.627Z,3.85
2024-01-15T03:50:13.449Z,3.85
2024-01-15T03:51:13.545Z,3.85
2024-01-15T03:52:14.471Z,3.86
2024-01-15T03:53:15.881Z,3.86
2024-01-15T03:54:15.670Z,3.88
2024-01-15T03:55:14.366Z,3.88
2024-01-15T03:56:13.450Z,3.89
2024-01-15T03:57:13.372Z,3.91
2024-01-15T03:58:14.439Z,3.91
2024-01-15T03:59:14.311Z,3.92
2024-01-15T04:00:14.289Z,3.92
2024-01-15T04:01:13.608Z,3.93
2024-01-15T04:02:13.451Z,3.94
2024-01-15T04:03:13.415Z,3.95
2024-01-15T04:04:17.464Z,3.97
2024-01-15T04:05:14.517Z,3.98
2024-01-15T04:06:14.001Z,3.99
2024-01-15T04:07:13.978Z,4.01
2024-01-15T04:08:13.230Z,4.02
2024-01-15T04:09:16.572Z,4.04
2024-01-15T04:10:13.253Z,4.05
2024-01-15T04:11:13.824Z,4.05
2024-01-15T04:12:15.770Z,4.05
2024-01-15T04:13:13.828Z,4.05
2024-01-15T04:14:13.821Z,4.03
2024-01-15T04:15:13.311Z,4.03
2024-01-15T04:16:13.851Z,4.00
2024-01-15T04:17:13.295Z,3.99
2024-01-15T04:18:13.351Z,3.98
2024-01-15T04:19:13.304Z,3.95
2024-01-15T04:20:13.756Z,3.93
2024-01-15T04:21:13.492Z,3.90
2024-01-15T04:22:15.814Z,3.88
2024-01-15T04:23:13.765Z,3.85
2024-01-15T04:24:13.748Z,3.82
2024-01-15T04:25:13.758Z,3.80
2024-01-15T04:26:13.698Z,3.77
2024-01-15T04:27:13.986Z,3.76
2024-01-15T04:28:13.697Z,3.75
2024-01-15T04:29:13.651Z,3.74
2024-01-15T04:30:13.713Z,3.72
2024-01-15T04:31:13.154Z,3.72
2024-01-15T04:32:13.636Z,3.69
2024-01-15T04:33:13.721Z,3.69
2024-01-15T04:34:13.699Z,3.70
2024-01-15T04:35:13.624Z,3.70
2024-01-15T04:36:13.650Z,3.70
2024-01-15T04:37:13.636Z,3.69
2024-01-15T04:38:13.901Z,3.71
2024-01-15T04:39:13.576Z,3.70
2024-01-15T04:40:13.561Z,3.71
2024-01-15T04:41:13.550Z,3.72
2024-01-15T04:42:13.604Z,3.72
2024-01-15T04:43:13.552Z,3.74
2024-01-15T04:44:13.531Z,3.72
2024-01-15T04:45:13.552Z,3.72
2024-01-15T04:46:13.500Z,3.71
2024-01-15T04:47:16.479Z,3.71
2024-01-15T04:48:13.674Z,3.70
2024-01-15T04:49:14.521Z,3.69
2024-01-15T04:50:13.779Z,3.67
2024-01-15T04:51:13.162Z,3.67
2024-01-15T04:52:13.456Z,3.65
2024-01-15T04:53:13.809Z,3.65
2024-01-15T04:54:12.988Z,3.63
2024-01-15T04:55:13.391Z,3.63
2024-01-15T04:56:12.791Z,3.62
2024-01-15T04:57:13.500Z,3.61
2024-01-15T04:58:13.378Z,3.59
2024-01-15T04:59:12.833Z,3.59
2024-01-15T05:00:12.788Z,3.58
2024-01-15T05:01:12.998Z,3.57
2024-01-15T05:02:12.892Z,3.57
2024-01-15T05:03:12.940Z,3.57
2024-01-15T05:04:12.837Z,3.57
2024-01-15T05:05:12.781Z,3.57
2024-01-15T05:06:12.847Z,3.56
2024-01-15T05:07:13.829Z,3.57
2024-01-15T05:08:13.269Z,3.56
2024-01-15T05:09:13.159Z,3.58
2024-01-15T05:10:13.289Z,3.58
2024-01-15T05:11:13.301Z,3.59
2024-01-15T05:12:12.782Z,3.59
2024-01-15T05:13:12.806Z,3.61
2024-01-15T05:14:15.244Z,3.61
2024-01-15T05:15:13.274Z,3.62
2024-01-15T05:16:13.109Z,3.64
2024-01-15T05:17:13.154Z,3.64
2024-01-15T05:18:13.320Z,3.66
2024-01-15T05:19:13.363Z,3.66
2024-01-15T05:20:13.268Z,3.68
2024-01-15T05:21:13.139Z,3.69
2024-01-15T05:22:13.098Z,3.69
2024-01-15T05:23:13.088Z,3.71
2024-01-15T05:24:13.145Z,3.71
2024-01-15T05:25:13.140Z,3.72
2024-01-15T05:26:12.944Z,3.72
2024-01-15T05:27:13.133Z,3.72
2024-01-15T05:28:13.081Z,3.71
2024-01-15T05:29:13.035Z,3.72
2024-01-15T05:30:13.161Z,3.72
2024-01-15T05:31:13.087Z,3.71
2024-01-15T05:32:13.003Z,3.70
2024-01-15T05:33:13.044Z,3.71
2024-01-15T05:34:13.169Z,3.72
2024-01-15T05:35:12.496Z,3.71
2024-01-15T05:36:12.456Z,3.70
2024-01-15T05:37:12.958Z,3.69
2024-01-15T05:38:12.960Z,3.70
2024-01-15T05:39:12.978Z,3.70
2024-01-15T05:40:12.939Z,3.70
2024-01-15T05:41:12.943Z,3.71
2024-01-15T05:42:12.932Z,3.71
2024-01-15T05:43:12.898Z,3.70
2024-01-15T05:44:12.869Z,3.70
2024-01-15T05:45:12.944Z,3.70
2024-01-15T05:46:12.866Z,3.71
2024-01-15T05:47:12.838Z,3.69
2024-01-15T05:48:12.935Z,3.68
2024-01-15T05:49:12.914Z,3.69
2024-01-15T05:50:13.168Z,3.68
2024-01-15T05:51:12.225Z,3.68
2024-01-15T05:52:12.784Z,3.68
2024-01-15T05:53:12.141Z,3.69
2024-01-15T05:54:12.773Z,3.70
2024-01-15T05:55:12.782Z,3.71
2024-01-15T05:56:12.742Z,3.72
2024-01-15T05:57:12.758Z,3.73
2024-01-15T05:58:12.733Z,3.74
2024-01-15T05:59:15.677Z,3.75
2024-01-15T06:00:12.259Z,3.76
2024-01-15T06:01:14.634Z,3.76
2024-01-15T06:02:12.153Z,3.77
2024-01-15T06:03:12.692Z,3.78
2024-01-15T06:04:12.812Z,3.77
2024-01-15T06:05:12.689Z,3.77
2024-01-15T06:06:12.191Z,3.77
2024-01-15T06:07:11.977Z,3.76
2024-01-15T06:08:12.180Z,3.76
2024-01-15T06:09:12.053Z,3.74
2024-01-15T06:10:11.942Z,3.74
2024-01-15T06:11:14.383Z,3.73
2024-01-15T06:12:14.419Z,3.70
2024-01-15T06:13:12.557Z,3.68
2024-01-15T06:14:11.924Z,3.67
2024-01-15T06:15:12.891Z,3.66
2024-01-15T06:16:13.403Z,3.66
2024-01-15T06:17:12.849Z,3.65
2024-01-15T06:18:12.643Z,3.65
2024-01-15T06:19:12.565Z,3.65
2024-01-15T06:20:12.494Z,3.66
2024-01-15T06:21:12.512Z,3.66
2024-01-15T06:22:12.463Z,3.68
2024-01-15T06:23:12.458Z,3.69
2024-01-15T06:24:12.508Z,3.70
2024-01-15T06:25:12.455Z,3.73
2024-01-15T06:26:12.453Z,3.73
2024-01-15T06:27:12.456Z,3.74
2024-01-15T06:28:12.423Z,3.74
2024-01-15T06:29:12.433Z,3.76
2024-01-15T06:30:12.513Z,3.75
2024-01-15T06:31:12.057Z,3.75
2024-01-15T06:32:12.393Z,3.75
2024-01-15T06:33:13.311Z,3.75
2024-01-15T06:34:12.581Z,3.75
2024-01-15T06:35:12.357Z,3.74
2024-01-15T06:36:12.351Z,3.75
2024-01-15T06:37:14.215Z,3.76
2024-01-15T06:38:12.314Z,3.74
2024-01-15T06:39:12.510Z,3.74
2024-01-15T06:40:12.319Z,3.74
2024-01-15T06:41:12.309Z,3.74
2024-01-15T06:42:11.889Z,3.74
2024-01-15T06:43:12.261Z,3.73
2024-01-15T06:44:12.268Z,3.73
2024-01-15T06:45:12.267Z,3.73
2024-01-15T06:46:12.278Z,3.72
2024-01-15T06:47:11.789Z,3.72
2024-01-15T06:48:11.739Z,3.72
2024-01-15T06:49:12.362Z,3.72
2024-01-15T06:50:12.210Z,3.71
2024-01-15T06:51:11.700Z,3.72
2024-01-15T06:52:11.680Z,3.71
2024-01-15T06:53:11.621Z,3.72
2024-01-15T06:54:11.597Z,3.71
2024-01-15T06:55:11.610Z,3.69
2024-01-15T06:56:12.141Z,3.68
2024-01-15T06:57:11.533Z,3.67
2024-01-15T06:58:12.128Z,3.65
2024-01-15T06:59:12.124Z,3.64
2024-01-15T07:00:12.135Z,3.63
2024-01-15T07:01:12.154Z,3.62
2024-01-15T07:02:14.094Z,3.60
2024-01-15T07:03:11.561Z,3.61
2024-01-15T07:04:14.049Z,3.60
2024-01-15T07:05:12.115Z,3.60
2024-01-15T07:06:11.494Z,3.61
2024-01-15T07:07:11.441Z,3.61
2024-01-15T07:08:11.987Z,3.62
2024-01-15T07:09:11.457Z,3.61
2024-01-15T07:10:11.984Z,3.62
2024-01-15T07:11:12.008Z,3.62
2024-01-15T07:12:11.476Z,3.63
2024-01-15T07:13:11.416Z,3.65
2024-01-15T07:14:11.363Z,3.67
2024-01-15T07:15:12.045Z,3.67
2024-01-15T07:16:11.394Z,3.70
2024-01-15T07:17:11.347Z,3.72
2024-01-15T07:18:11.439Z,3.73
2024-01-15T07:19:12.007Z,3.73
2024-01-15T07:20:11.444Z,3.74
2024-01-15T07:21:11.975Z,3.76
2024-01-15T07:22:11.349Z,3.77
2024-01-15T07:23:11.847Z,3.75
2024-01-15T07:24:11.353Z,3.76
2024-01-15T07:25:11.346Z,3.76
2024-01-15T07:26:11.262Z,3.77
2024-01-15T07:27:11.438Z,3.76
2024-01-15T07:28:11.417Z,3.76
2024-01-15T07:29:11.380Z,3.77
2024-01-15T07:30:11.437Z,3.77
2024-01-15T07:31:11.422Z,3.77
2024-01-15T07:32:11.300Z,3.77
2024-01-15T07:33:11.386Z,3.78
2024-01-15T07:34:11.351Z,3.78
2024-01-15T07:35:11.912Z,3.77
2024-01-15T07:36:11.365Z,3.78
2024-01-15T07:37:11.381Z,3.77
2024-01-15T07:38:11.085Z,3.78
2024-01-15T07:39:11.162Z,3.78
2024-01-15T07:40:11.321Z,3.79
2024-01-15T07:41:11.257Z,3.78
2024-01-15T07:42:11.175Z,3.78
2024-01-15T07:43:13.543Z,3.78
2024-01-15T07:44:11.150Z,3.78
2024-01-15T07:45:11.190Z,3.78
2024-01-15T07:46:11.329Z,3.78
2024-01-15T07:47:11.096Z,3.78
2024-01-15T07:48:11.320Z,3.79
2024-01-15T07:49:11.696Z,3.79
2024-01-15T07:50:11.071Z,3.78
2024-01-15T07:51:11.380Z,3.77
2024-01-15T07:52:11.040Z,3.77
2024-01-15T07:53:11.592Z,3.77
2024-01-15T07:54:11.023Z,3.77
2024-01-15T07:55:11.697Z,3.77
2024-01-15T07:56:11.053Z,3.77
2024-01-15T07:57:10.965Z,3.77
2024-01-15T07:58:16.213Z,3.76
2024-01-15T07:59:12.332Z,3.76
2024-01-15T08:00:11.248Z,3.75
2024-01-15T08:01:11.281Z,3.75
2024-01-15T08:02:11.145Z,3.76
2024-01-15T08:03:11.176Z,3.77
2024-01-15T08:04:11.909Z,3.78
2024-01-15T08:05:11.027Z,3.80
2024-01-15T08:06:11.625Z,3.80
2024-01-15T08:07:11.195Z,3.80
2024-01-15T08:08:12.082Z,3.83
2024-01-15T08:09:11.650Z,3.83
2024-01-15T08:10:11.401Z,3.85
2024-01-15T08:11:10.914Z,3.87
2024-01-15T08:12:10.798Z,3.87
2024-01-15T08:13:10.808Z,3.89
2024-01-15T08:14:11.304Z,3.89
2024-01-15T08:15:10.677Z,3.91
2024-01-15T08:16:10.964Z,3.92
2024-01-15T08:17:10.737Z,3.94
2024-01-15T08:18:10.854Z,3.95
2024-01-15T08:19:10.769Z,3.97
2024-01-15T08:20:11.418Z,3.99
2024-01-15T08:21:10.663Z,4.00
2024-01-15T08:22:10.879Z,4.01
2024-01-15T08:23:10.995Z,4.03
2024-01-15T08:24:11.214Z,4.04
2024-01-15T08:25:11.208Z,4.06
2024-01-15T08:26:11.178Z,4.07
2024-01-15T08:27:10.657Z,4.10
2024-01-15T08:28:10.641Z,4.12
2024-01-15T08:29:11.170Z,4.13
2024-01-15T08:30:11.274Z,4.14
2024-01-15T08:31:10.573Z,4.14
2024-01-15T08:32:10.625Z,4.16
2024-01-15T08:33:18.431Z,4.18
2024-01-15T08:34:12.170Z,4.20
2024-01-15T08:35:11.628Z,4.21
2024-01-15T08:36:10.547Z,4.22
2024-01-15T08:37:10.459Z,4.22
2024-01-15T08:38:10.450Z,4.23
2024-01-15T08:39:10.602Z,4.22
2024-01-15T08:40:12.425Z,4.22
2024-01-15T08:41:10.536Z,4.21
2024-01-15T08:42:10.518Z,4.20
2024-01-15T08:43:10.397Z,4.18
2024-01-15T08:44:10.986Z,4.17
2024-01-15T08:45:10.417Z,4.16
2024-01-15T08:46:10.516Z,4.14
2024-01-15T08:47:10.319Z,4.12
2024-01-15T08:48:10.410Z,4.10
2024-01-15T08:49:10.371Z,4.09
2024-01-15T08:50:10.941Z,4.07
2024-01-15T08:51:10.343Z,4.05
2024-01-15T08:52:10.465Z,4.03
2024-01-15T08:53:10.229Z,4.04
2024-01-15T08:54:10.348Z,4.03
2024-01-15T08:55:10.316Z,4.04
2024-01-15T08:56:10.261Z,4.06
2024-01-15T08:57:10.890Z,4.08
2024-01-15T08:58:10.228Z,4.09
2024-01-15T08:59:10.237Z,4.11
2024-01-15T09:00:10.272Z,4.12
2024-01-15T09:01:10.319Z,4.13
2024-01-15T09:02:10.814Z,4.10
2024-01-15T09:03:10.968Z,4.09
2024-01-15T09:04:10.840Z,4.06
2024-01-15T09:05:10.905Z,4.04
2024-01-15T09:06:10.892Z,4.01
2024-01-15T09:07:12.558Z,3.99
2024-01-15T09:08:10.772Z,3.97
2024-01-15T09:09:10.763Z,3.96
2024-01-15T09:10:10.721Z,3.95
2024-01-15T09:11:10.094Z,3.95
2024-01-15T09:12:10.465Z,3.95
2024-01-15T09:13:10.104Z,3.96
2024-01-15T09:14:10.079Z,4.00
2024-01-15T09:15:10.152Z,4.08
2024-01-15T09:16:10.787Z,4.15
2024-01-15T09:17:10.714Z,4.22
2024-01-15T09:18:10.229Z,4.26
2024-01-15T09:19:10.163Z,4.29
2024-01-15T09:20:10.673Z,4.33
2024-01-15T09:21:10.013Z,4.39
2024-01-15T09:22:10.613Z,4.44
2024-01-15T09:23:10.003Z,4.45
2024-01-15T09:24:10.620Z,4.48
2024-01-15T09:25:12.539Z,4.52
2024-01-15T09:26:10.564Z,4.55
2024-01-15T09:27:10.573Z,4.64
2024-01-15T09:28:10.152Z,4.73
2024-01-15T09:29:10.533Z,4.77
2024-01-15T09:30:10.222Z,4.79
2024-01-15T09:31:11.544Z,4.79
2024-01-15T09:32:09.914Z,4.78
2024-01-15T09:33:10.589Z,4.78
2024-01-15T09:34:10.008Z,4.78
2024-01-15T09:35:12.269Z,4.74
2024-01-15T09:36:10.469Z,4.75
2024-01-15T09:37:11.762Z,4.78
2024-01-15T09:38:10.417Z,4.81
2024-01-15T09:39:10.428Z,4.88
2024-01-15T09:40:10.394Z,4.95
2024-01-15T09:41:09.751Z,5.02
2024-01-15T09:42:10.419Z,5.12
2024-01-15T09:43:09.888Z,5.18
2024-01-15T09:44:09.756Z,5.20
2024-01-15T09:45:09.852Z,5.23
2024-01-15T09:46:10.354Z,5.26
2024-01-15T09:47:10.328Z,5.28
2024-01-15T09:48:09.750Z,5.30
2024-01-15T09:49:09.834Z,5.36
2024-01-15T09:50:10.588Z,5.42
2024-01-15T09:51:10.371Z,5.47
2024-01-15T09:52:12.241Z,5.50
2024-01-15T09:53:10.273Z,5.52
2024-01-15T09:54:10.298Z,5.59
2024-01-15T09:55:09.663Z,5.59
2024-01-15T09:56:10.206Z,5.58
2024-01-15T09:57:10.281Z,5.65
2024-01-15T09:58:09.604Z,5.86
2024-01-15T09:59:09.521Z,6.36
2024-01-15T10:00:09.636Z,7.00
2024-01-15T10:01:10.285Z,7.26
2024-01-15T10:02:10.206Z,7.07
2024-01-15T10:03:10.154Z,6.95
2024-01-15T10:04:10.224Z,6.83
2024-01-15T10:05:09.533Z,6.77
2024-01-15T10:06:09.645Z,6.75
2024-01-15T10:07:09.583Z,6.72
2024-01-15T10:08:09.462Z,6.65
2024-01-15T10:09:10.197Z,6.59
2024-01-15T10:10:11.954Z,6.62
2024-01-15T10:11:10.074Z,6.65
2024-01-15T10:12:09.706Z,6.65
2024-01-15T10:13:10.049Z,6.70
2024-01-15T10:14:10.030Z,6.78
2024-01-15T10:15:10.041Z,6.84
2024-01-15T10:16:10.025Z,6.95
2024-01-15T10:17:10.057Z,6.95
2024-01-15T10:18:10.100Z,6.97
2024-01-15T10:19:09.524Z,6.95
2024-01-15T10:20:10.050Z,7.01
2024-01-15T10:21:10.001Z,7.00
2024-01-15T10:22:09.335Z,7.07
2024-01-15T10:23:11.709Z,7.16
2024-01-15T10:24:09.379Z,7.19
2024-01-15T10:25:09.340Z,7.24
2024-01-15T10:26:09.269Z,7.33
2024-01-15T10:27:09.287Z,7.32
2024-01-15T10:28:09.905Z,7.28
2024-01-15T10:29:09.260Z,7.30
2024-01-15T10:30:09.954Z,7.33
2024-01-15T10:31:09.933Z,7.31
2024-01-15T10:32:09.365Z,7.25
2024-01-15T10:33:09.931Z,7.22
2024-01-15T10:34:10.209Z,7.24
2024-01-15T10:35:09.892Z,7.27
2024-01-15T10:36:09.963Z,7.36
2024-01-15T10:37:09.202Z,7.50
2024-01-15T10:38:09.765Z,7.58
2024-01-15T10:39:09.989Z,7.57
2024-01-15T10:40:09.899Z,7.58
2024-01-15T10:41:09.895Z,7.52
2024-01-15T10:42:09.788Z,7.42
2024-01-15T10:43:09.754Z,7.26
2024-01-15T10:44:09.196Z,7.12
2024-01-15T10:45:10.189Z,7.02
2024-01-15T10:46:09.115Z,7.05
2024-01-15T10:47:09.721Z,7.09
2024-01-15T10:48:09.810Z,7.07
2024-01-15T10:49:09.758Z,6.98
2024-01-15T10:50:09.114Z,6.90
2024-01-15T10:51:09.657Z,6.86
2024-01-15T10:52:09.634Z,6.79
2024-01-15T10:53:09.007Z,6.83
2024-01-15T10:54:09.016Z,6.93
2024-01-15T10:55:14.451Z,7.10
2024-01-15T10:56:10.642Z,7.24
2024-01-15T10:57:09.642Z,7.23
2024-01-15T10:58:09.612Z,7.07
2024-01-15T10:59:08.949Z,6.91
2024-01-15T11:00:08.980Z,6.75
2024-01-15T11:01:09.006Z,6.60
2024-01-15T11:02:09.619Z,6.46
2024-01-15T11:03:09.527Z,6.34
2024-01-15T11:04:09.001Z,6.22
2024-01-15T11:05:09.909Z,6.14
2024-01-15T11:06:09.028Z,6.13
2024-01-15T11:07:08.993Z,6.17
2024-01-15T11:08:09.474Z,6.19
2024-01-15T11:09:08.938Z,6.23
2024-01-15T11:10:08.788Z,6.29
2024-01-15T11:11:09.430Z,6.32
2024-01-15T11:12:08.880Z,6.32
2024-01-15T11:13:08.820Z,6.34
2024-01-15T11:14:09.396Z,6.29
2024-01-15T11:15:09.721Z,6.26
2024-01-15T11:16:08.748Z,6.18
2024-01-15T11:17:08.793Z,6.12
2024-01-15T11:18:09.433Z,6.08
2024-01-15T11:19:08.758Z,6.06
2024-01-15T11:20:08.735Z,6.05
2024-01-15T11:21:08.675Z,6.03
2024-01-15T11:22:08.716Z,5.98
2024-01-15T11:23:08.684Z,6.00
2024-01-15T11:24:09.295Z,6.08
2024-01-15T11:25:08.776Z,6.20
2024-01-15T11:26:09.360Z,6.22
2024-01-15T11:27:08.686Z,6.29
2024-01-15T11:28:08.753Z,6.41
2024-01-15T11:29:09.303Z,6.53
2024-01-15T11:30:08.656Z,6.61
2024-01-15T11:31:08.676Z,6.77
2024-01-15T11:32:09.382Z,6.85
2024-01-15T11:33:09.057Z,6.86
2024-01-15T11:34:09.270Z,6.90
2024-01-15T11:35:08.563Z,6.89
2024-01-15T11:36:08.641Z,6.91
2024-01-15T11:37:09.160Z,7.01
2024-01-15T11:38:09.144Z,7.06
2024-01-15T11:39:08.519Z,7.02
2024-01-15T11:40:08.483Z,6.93
2024-01-15T11:41:09.124Z,6.85
2024-01-15T11:42:09.098Z,6.77
2024-01-15T11:43:08.619Z,6.71
2024-01-15T11:44:09.092Z,6.65
2024-01-15T11:45:09.118Z,6.64
2024-01-15T11:46:10.958Z,6.62
2024-01-15T11:48:09.152Z,6.53
2024-01-15T11:49:09.144Z,6.50
2024-01-15T11:50:09.081Z,6.45
2024-01-15T11:51:09.051Z,6.42
2024-01-15T11:52:08.430Z,6.40
2024-01-15T11:53:09.020Z,6.41
2024-01-15T11:54:08.988Z,6.41
2024-01-15T11:55:08.994Z,6.39
2024-01-15T11:56:08.396Z,6.38
2024-01-15T11:57:08.947Z,6.42
2024-01-15T11:58:08.380Z,6.52
2024-01-15T11:59:08.985Z,6.53
2024-01-15T12:00:08.371Z,6.53
2024-01-15T12:01:08.978Z,6.57
2024-01-15T12:02:08.924Z,6.63
2024-01-15T12:03:08.898Z,6.66
2024-01-15T12:04:08.389Z,6.73
2024-01-15T12:05:08.362Z,6.79
2024-01-15T12:06:08.481Z,6.85
2024-01-15T12:07:08.297Z,6.89
2024-01-15T12:08:08.228Z,6.85
2024-01-15T12:09:08.267Z,6.74
2024-01-15T12:10:08.836Z,6.62
2024-01-15T12:11:08.265Z,6.54
2024-01-15T12:12:08.203Z,6.48
2024-01-15T12:13:08.787Z,6.42
2024-01-15T12:14:08.774Z,6.33
2024-01-15T12:15:08.164Z,6.23
2024-01-15T12:16:08.928Z,6.16
2024-01-15T12:17:08.741Z,6.09
2024-01-15T12:18:08.219Z,6.04
2024-01-15T12:19:08.787Z,6.03
2024-01-15T12:20:08.706Z,6.04
2024-01-15T12:21:08.146Z,6.05
2024-01-15T12:22:08.092Z,6.06
2024-01-15T12:23:09.383Z,6.06
2024-01-15T12:24:08.069Z,6.04
2024-01-15T12:25:08.679Z,6.09
2024-01-15T12:26:08.656Z,6.18
2024-01-15T12:27:08.936Z,6.26
2024-01-15T12:28:08.663Z,6.30
2024-01-15T12:29:08.200Z,6.33
2024-01-15T12:30:08.695Z,6.30
2024-01-15T12:31:08.709Z,6.25
2024-01-15T12:32:07.962Z,6.22
2024-01-15T12:33:08.116Z,6.21
2024-01-15T12:34:08.682Z,6.23
2024-01-15T12:35:07.914Z,6.26
2024-01-15T12:36:08.555Z,6.31
2024-01-15T12:37:08.032Z,6.33
2024-01-15T12:38:08.028Z,6.29
2024-01-15T12:39:08.542Z,6.23
2024-01-15T12:40:07.928Z,6.15
2024-01-15T12:41:07.900Z,6.08
2024-01-15T12:42:08.505Z,6.01
2024-01-15T12:43:09.027Z,5.95
2024-01-15T12:44:07.871Z,5.90
2024-01-15T12:45:08.475Z,5.87
2024-01-15T12:46:07.957Z,5.82
2024-01-15T12:47:08.433Z,5.76
2024-01-15T12:48:08.547Z,5.70
2024-01-15T12:49:08.465Z,5.65
2024-01-15T12:50:15.663Z,5.61
2024-01-15T12:51:09.396Z,5.57
2024-01-15T12:52:08.003Z,5.54
2024-01-15T12:53:07.753Z,5.50
2024-01-15T12:54:07.735Z,5.51
2024-01-15T12:55:08.373Z,5.49
2024-01-15T12:56:07.701Z,5.46
2024-01-15T12:57:08.335Z,5.41
2024-01-15T12:58:08.349Z,5.39
2024-01-15T12:59:08.314Z,5.37
2024-01-15T13:00:08.325Z,5.35
2024-01-15T13:01:08.402Z,5.31
2024-01-15T13:02:07.705Z,5.26
2024-01-15T13:03:07.739Z,5.21
2024-01-15T13:04:07.720Z,5.17
2024-01-15T13:05:08.462Z,5.13
2024-01-15T13:06:07.774Z,5.08
2024-01-15T13:07:08.282Z,5.05
2024-01-15T13:08:07.908Z,5.03
2024-01-15T13:09:08.221Z,5.01
2024-01-15T13:10:08.193Z,5.00
2024-01-15T13:11:07.621Z,5.03
2024-01-15T13:12:08.208Z,5.07
2024-01-15T13:13:08.167Z,5.08
2024-01-15T13:14:08.168Z,5.07
2024-01-15T13:15:09.979Z,5.07
2024-01-15T13:16:08.151Z,5.08
2024-01-15T13:17:07.642Z,5.08
2024-01-15T13:18:07.550Z,5.09
2024-01-15T13:19:07.587Z,5.09